^^
Meteo Knjazevac Station Historical Data
Daily Summary for January 27, 2021 Units:  Metric    English   Both
Daily Weekly Monthly Yearly Custom
  High: Low: Average:
Temperature: 30 °C 15.3 °C 21.3 °C
Dew Point: 19.7 °C 13.4 °C 15.9 °C
Humidity: 98% 42% 75%
Wind Speed: 16.1km/h 0km/h 5.1km/h
Wind Gust: 24.1km/h - -
Wind- - West
Pressure: 1017.5 hPa 1012.1 hPa -
Precipitation: 0 mm    
Historical Graphs
 
 
Tabular Data for January 27, 2021
Time Temperature Dew Point Pressure Wind Wind Speed Wind Gust Humidity Rainfall Rate (Hourly) solar Conditions
00:00 19.2 °C 17.5 °C 1013.4 hPa Calm   3.2 km/h 90% 0 mm 0 W/m2
00:10 19.1 °C 17.2 °C 1013.4 hPa Calm   3.2 km/h 89% 0 mm 0 W/m2
00:20 18.8 °C 17.2 °C 1013.4 hPa Calm   4.8 km/h 90% 0 mm 0 W/m2
00:30 18.6 °C 17.1 °C 1013.4 hPa Calm   4.8 km/h 91% 0 mm 0 W/m2
00:40 18.5 °C 17 °C 1013.4 hPa Calm   3.2 km/h 91% 0 mm 0 W/m2
00:50 18.4 °C 17.2 °C 1013.4 hPa SW 1.6 km/h 3.2 km/h 93% 0 mm 0 W/m2
01:00 18.1 °C 17 °C 1013.4 hPa WNW 3.2 km/h 6.4 km/h 93% 0 mm 0 W/m2
01:10 18.1 °C 16.9 °C 1013.4 hPa WNW 3.2 km/h 6.4 km/h 93% 0 mm 0 W/m2
01:20 17.8 °C 16.7 °C 1013.4 hPa WSW 1.6 km/h 6.4 km/h 93% 0 mm 0 W/m2
01:30 17.6 °C 16.4 °C 1013.4 hPa WSW 3.2 km/h 6.4 km/h 93% 0 mm 0 W/m2
01:40 17.3 °C 16.2 °C 1013.1 hPa West 3.2 km/h 8 km/h 93% 0 mm 0 W/m2
01:50 17.2 °C 16.2 °C 1013.4 hPa WNW 3.2 km/h 9.7 km/h 94% 0 mm 0 W/m2
02:00 17 °C 15.8 °C 1013.1 hPa WNW 1.6 km/h 6.4 km/h 93% 0 mm 0 W/m2
02:10 16.9 °C 15.8 °C 1013.1 hPa WSW 3.2 km/h 4.8 km/h 93% 0 mm 0 W/m2
02:20 16.8 °C 15.7 °C 1013.1 hPa WSW 3.2 km/h 4.8 km/h 93% 0 mm 0 W/m2
02:30 16.7 °C 15.7 °C 1013.1 hPa West 3.2 km/h 6.4 km/h 94% 0 mm 0 W/m2
02:40 16.7 °C 15.7 °C 1013.1 hPa WNW 1.6 km/h 6.4 km/h 94% 0 mm 0 W/m2
02:50 16.6 °C 15.6 °C 1013.1 hPa NNW 1.6 km/h 3.2 km/h 94% 0 mm 0 W/m2
03:00 16.8 °C 15.8 °C 1013.1 hPa West 1.6 km/h 4.8 km/h 94% 0 mm 0 W/m2
03:10 16.7 °C 15.7 °C 1013.1 hPa NW 1.6 km/h 3.2 km/h 94% 0 mm 0 W/m2
03:20 16.6 °C 15.6 °C 1013.1 hPa WNW 3.2 km/h 8 km/h 94% 0 mm 0 W/m2
03:30 16.6 °C 15.6 °C 1013.1 hPa Calm   4.8 km/h 94% 0 mm 0 W/m2
03:40 16.6 °C 15.6 °C 1013.1 hPa WNW 3.2 km/h 3.2 km/h 94% 0 mm 0 W/m2
03:50 16.6 °C 15.6 °C 1013.1 hPa WSW 3.2 km/h 4.8 km/h 94% 0 mm 0 W/m2
04:00 16.6 °C 15.6 °C 1013.1 hPa WSW 1.6 km/h 3.2 km/h 94% 0 mm 0 W/m2
04:10 16.6 °C 15.6 °C 1013.1 hPa Calm   3.2 km/h 94% 0 mm 0 W/m2
04:20 16.5 °C 15.6 °C 1013.1 hPa West 3.2 km/h 4.8 km/h 94% 0 mm 0 W/m2
04:30 16.4 °C 15.4 °C 1013.1 hPa WNW 3.2 km/h 6.4 km/h 94% 0 mm 0 W/m2
04:40 16.5 °C 15.7 °C 1013.1 hPa Calm   4.8 km/h 95% 0 mm 0 W/m2
04:50 16.6 °C 15.6 °C 1013.1 hPa Calm   4.8 km/h 94% 0 mm 0 W/m2
05:00 16.5 °C 15.6 °C 1013.1 hPa Calm   1.6 km/h 94% 0 mm 0 W/m2
05:10 16.4 °C 15.4 °C 1013.1 hPa West 3.2 km/h 3.2 km/h 94% 0 mm 0 W/m2
05:20 16.3 °C 15.4 °C 1013.1 hPa West 3.2 km/h 4.8 km/h 94% 0 mm 0 W/m2
05:30 16.2 °C 15.4 °C 1013.1 hPa WNW 1.6 km/h 4.8 km/h 95% 0 mm 0 W/m2
05:40 16 °C 15.2 °C 1013.1 hPa West 3.2 km/h 4.8 km/h 95% 0 mm 0 W/m2
05:50 15.8 °C 14.8 °C 1013.1 hPa West 3.2 km/h 4.8 km/h 94% 0 mm 3 W/m2
06:00 15.7 °C 14.9 °C 1013.1 hPa West 3.2 km/h 6.4 km/h 95% 0 mm 9 W/m2
06:10 15.5 °C 14.7 °C 1013.4 hPa West 4.8 km/h 9.7 km/h 95% 0 mm 18 W/m2
06:20 15.3 °C 14.6 °C 1013.4 hPa West 1.6 km/h 9.7 km/h 95% 0 mm 31 W/m2
06:30 15.3 °C 14.7 °C 1013.4 hPa West 3.2 km/h 8 km/h 96% 0 mm 42 W/m2
06:40 15.3 °C 14.7 °C 1013.4 hPa WNW 1.6 km/h 4.8 km/h 96% 0 mm 61 W/m2
06:50 15.3 °C 14.5 °C 1013.4 hPa Calm   3.2 km/h 95% 0 mm 87 W/m2
07:00 15.3 °C 14.5 °C 1013.4 hPa Calm   3.2 km/h 95% 0 mm 96 W/m2
07:10 15.3 °C 14.5 °C 1013.4 hPa Calm   3.2 km/h 95% 0 mm 138 W/m2
07:20 15.4 °C 14.8 °C 1013.4 hPa NNW 3.2 km/h 4.8 km/h 96% 0 mm 172 W/m2
07:30 15.6 °C 14.9 °C 1013.4 hPa NNW 1.6 km/h 4.8 km/h 96% 0 mm 207 W/m2
07:40 15.9 °C 15.6 °C 1013.1 hPa West 1.6 km/h 4.8 km/h 98% 0 mm 237 W/m2
07:50 16.2 °C 15.9 °C 1013.4 hPa WNW 1.6 km/h 3.2 km/h 98% 0 mm 275 W/m2
08:00 16.5 °C 16.2 °C 1013.4 hPa WNW 1.6 km/h 6.4 km/h 98% 0 mm 315 W/m2
08:10 16.9 °C 16.6 °C 1013.4 hPa Calm   8 km/h 98% 0 mm 350 W/m2
08:20 17.4 °C 16.8 °C 1013.1 hPa NE 1.6 km/h 3.2 km/h 96% 0 mm 389 W/m2
08:30 17.9 °C 17.2 °C 1013.4 hPa West 1.6 km/h 4.8 km/h 96% 0 mm 430 W/m2
08:40 18.9 °C 17.9 °C 1013.4 hPa SW 1.6 km/h 8 km/h 94% 0 mm 464 W/m2
08:50 20.1 °C 18.4 °C 1013.4 hPa SW 1.6 km/h 8 km/h 90% 0 mm 497 W/m2
09:00 20.9 °C 18.4 °C 1013.4 hPa ESE 3.2 km/h 8 km/h 86% 0 mm 526 W/m2
09:10 21.7 °C 18.7 °C 1013.4 hPa SSE 3.2 km/h 8 km/h 83% 0 mm 553 W/m2
09:20 22.4 °C 18.9 °C 1013.4 hPa SSW 1.6 km/h 6.4 km/h 81% 0 mm 580 W/m2
09:30 23.1 °C 19.1 °C 1013.4 hPa SSE 3.2 km/h 8 km/h 78% 0 mm 606 W/m2
09:40 23.6 °C 19.3 °C 1013.4 hPa South 1.6 km/h 8 km/h 77% 0 mm 631 W/m2
09:50 24.2 °C 19.7 °C 1013.4 hPa SW 3.2 km/h 9.7 km/h 76% 0 mm 318 W/m2
10:00 24.4 °C 19 °C 1013.4 hPa SW 11.3 km/h 22.5 km/h 72% 0 mm 678 W/m2
10:10 24.6 °C 18.7 °C 1013.4 hPa SW 8 km/h 20.9 km/h 70% 0 mm 393 W/m2
10:20 24.7 °C 18.4 °C 1013.4 hPa SW 9.7 km/h 22.5 km/h 68% 0 mm 596 W/m2
10:30 25.2 °C 18.6 °C 1013.4 hPa SSW 9.7 km/h 17.7 km/h 67% 0 mm 358 W/m2
10:40 25.6 °C 18.6 °C 1013.4 hPa SSW 11.3 km/h 20.9 km/h 65% 0 mm 263 W/m2
10:50 26.1 °C 18.5 °C 1013.4 hPa SSW 9.7 km/h 19.3 km/h 63% 0 mm 157 W/m2
11:00 26.5 °C 18.3 °C 1013.4 hPa SSW 9.7 km/h 14.5 km/h 61% 0 mm 150 W/m2
11:10 26.8 °C 18.4 °C 1013.4 hPa SW 12.9 km/h 22.5 km/h 60% 0 mm 348 W/m2
11:20 26.9 °C 17.9 °C 1013.4 hPa SW 12.9 km/h 19.3 km/h 58% 0 mm 247 W/m2
11:30 27 °C 18.3 °C 1013.4 hPa SW 11.3 km/h 20.9 km/h 59% 0 mm 337 W/m2
11:40 26.6 °C 16.8 °C 1013.1 hPa SW 12.9 km/h 20.9 km/h 55% 0 mm 494 W/m2
11:50 26.9 °C 16.8 °C 1013.1 hPa SW 9.7 km/h 20.9 km/h 54% 0 mm 587 W/m2
12:00 27.3 °C 17.2 °C 1013.1 hPa SW 14.5 km/h 24.1 km/h 54% 0 mm 846 W/m2
12:10 27.4 °C 16.1 °C 1013.1 hPa SW 9.7 km/h 20.9 km/h 50% 0 mm 850 W/m2
12:20 27.6 °C 16.8 °C 1013.1 hPa SW 9.7 km/h 20.9 km/h 52% 0 mm 852 W/m2
12:30 27.9 °C 16.2 °C 1012.8 hPa South 11.3 km/h 20.9 km/h 49% 0 mm 853 W/m2
12:40 28.1 °C 16.7 °C 1012.8 hPa SSW 4.8 km/h 17.7 km/h 50% 0 mm 853 W/m2
12:50 28.4 °C 16.9 °C 1012.8 hPa SSW 8 km/h 11.3 km/h 50% 0 mm 850 W/m2
13:00 28.9 °C 17.1 °C 1012.8 hPa SW 11.3 km/h 19.3 km/h 49% 0 mm 846 W/m2
13:10 28.9 °C 16.4 °C 1012.8 hPa SSW 12.9 km/h 20.9 km/h 47% 0 mm 841 W/m2
13:20 29.1 °C 16.6 °C 1012.8 hPa SW 11.3 km/h 19.3 km/h 47% 0 mm 834 W/m2
13:30 29.1 °C 15.6 °C 1012.8 hPa SSW 4.8 km/h 20.9 km/h 44% 0 mm 825 W/m2
13:40 29.4 °C 15.2 °C 1012.8 hPa SSW 16.1 km/h 24.1 km/h 42% 0 mm 815 W/m2
13:50 29.4 °C 15.5 °C 1012.8 hPa SW 11.3 km/h 24.1 km/h 43% 0 mm 555 W/m2
14:00 29.1 °C 15.6 °C 1012.8 hPa SW 9.7 km/h 22.5 km/h 44% 0 mm 572 W/m2
14:10 28.9 °C 15.4 °C 1012.8 hPa SSW 9.7 km/h 16.1 km/h 44% 0 mm 775 W/m2
14:20 29.2 °C 16.1 °C 1012.4 hPa SW 4.8 km/h 14.5 km/h 45% 0 mm 759 W/m2
14:30 29.5 °C 15.9 °C 1012.4 hPa SW 9.7 km/h 12.9 km/h 44% 0 mm 742 W/m2
14:40 29.8 °C 16.6 °C 1012.4 hPa SW 11.3 km/h 19.3 km/h 45% 0 mm 723 W/m2
14:50 29.9 °C 16.3 °C 1012.4 hPa SW 11.3 km/h 19.3 km/h 44% 0 mm 703 W/m2
15:00 29.9 °C 16.3 °C 1012.4 hPa SW 9.7 km/h 16.1 km/h 44% 0 mm 681 W/m2
15:10 30 °C 16.4 °C 1012.1 hPa SW 3.2 km/h 16.1 km/h 44% 0 mm 659 W/m2
15:20 29.9 °C 16 °C 1012.1 hPa SW 4.8 km/h 16.1 km/h 43% 0 mm 308 W/m2
15:30 29.2 °C 17.1 °C 1012.4 hPa West 12.9 km/h 22.5 km/h 48% 0 mm 346 W/m2
15:40 28.4 °C 16.7 °C 1012.8 hPa West 14.5 km/h 22.5 km/h 49% 0 mm 267 W/m2
15:50 27.9 °C 17.1 °C 1012.8 hPa WNW 8 km/h 20.9 km/h 52% 0 mm 262 W/m2
16:00 27.5 °C 17.1 °C 1012.8 hPa WNW 8 km/h 17.7 km/h 53% 0 mm 205 W/m2
16:10 27.3 °C 16.9 °C 1012.8 hPa NW 3.2 km/h 12.9 km/h 53% 0 mm 216 W/m2
16:20 27.1 °C 16.7 °C 1012.8 hPa WNW 3.2 km/h 16.1 km/h 53% 0 mm 197 W/m2
16:30 26.9 °C 16.8 °C 1013.1 hPa NNW 8 km/h 11.3 km/h 54% 0 mm 209 W/m2
16:40 26.6 °C 16.2 °C 1013.1 hPa NNW 11.3 km/h 12.9 km/h 53% 0 mm 216 W/m2
16:50 26.6 °C 16.5 °C 1013.1 hPa NNW 9.7 km/h 17.7 km/h 54% 0 mm 199 W/m2
17:00 26.4 °C 16.3 °C 1013.1 hPa NNW 4.8 km/h 12.9 km/h 54% 0 mm 211 W/m2
17:10 26.2 °C 16.4 °C 1013.4 hPa NW 4.8 km/h 17.7 km/h 55% 0 mm 122 W/m2
17:20 25.6 °C 15.9 °C 1013.4 hPa WNW 8 km/h 19.3 km/h 55% 0 mm 79 W/m2
17:30 25.1 °C 16 °C 1013.4 hPa NW 3.2 km/h 14.5 km/h 57% 0 mm 80 W/m2
17:40 24.4 °C 15.9 °C 1013.8 hPa WNW 4.8 km/h 17.7 km/h 59% 0 mm 67 W/m2
17:50 24 °C 15.5 °C 1013.8 hPa NW 4.8 km/h 11.3 km/h 59% 0 mm 54 W/m2
18:00 23.7 °C 15.5 °C 1014.1 hPa North 4.8 km/h 19.3 km/h 60% 0 mm 47 W/m2
18:10 23.3 °C 15.1 °C 1014.1 hPa North 4.8 km/h 16.1 km/h 60% 0 mm 32 W/m2
18:20 22.9 °C 15.2 °C 1014.1 hPa North 8 km/h 16.1 km/h 62% 0 mm 38 W/m2
18:30 22.6 °C 15.2 °C 1014.1 hPa North 8 km/h 17.7 km/h 63% 0 mm 14 W/m2
18:40 22.3 °C 14.9 °C 1014.1 hPa NNW 8 km/h 14.5 km/h 63% 0 mm 9 W/m2
18:50 22 °C 14.9 °C 1014.4 hPa North 4.8 km/h 12.9 km/h 64% 0 mm 6 W/m2
19:00 21.7 °C 14.6 °C 1014.4 hPa NNW 4.8 km/h 12.9 km/h 64% 0 mm 5 W/m2
19:10 21.6 °C 14.7 °C 1014.8 hPa North 3.2 km/h 11.3 km/h 65% 0 mm 2 W/m2
19:20 21.4 °C 14.6 °C 1014.8 hPa North 4.8 km/h 9.7 km/h 65% 0 mm 0 W/m2
19:30 21.2 °C 14.8 °C 1015.1 hPa NNW 3.2 km/h 8 km/h 67% 0 mm 0 W/m2
19:40 21 °C 14.9 °C 1015.5 hPa North 1.6 km/h 9.7 km/h 68% 0 mm 0 W/m2
19:50 20.8 °C 14.9 °C 1015.5 hPa WNW 9.7 km/h 16.1 km/h 69% 0 mm 0 W/m2
20:00 20.4 °C 14.7 °C 1015.8 hPa West 11.3 km/h 20.9 km/h 70% 0 mm 0 W/m2
20:10 19.9 °C 14.3 °C 1015.8 hPa WNW 11.3 km/h 24.1 km/h 70% 0 mm 0 W/m2
20:20 19.5 °C 14.3 °C 1015.8 hPa West 4.8 km/h 17.7 km/h 72% 0 mm 0 W/m2
20:40 19.1 °C 14.3 °C 1016.1 hPa West 3.2 km/h 9.7 km/h 74% 0 mm 0 W/m2
20:50 19 °C 14.4 °C 1016.1 hPa WSW 3.2 km/h 6.4 km/h 75% 0 mm 0 W/m2
21:00 18.9 °C 14.4 °C 1016.1 hPa WSW 3.2 km/h 8 km/h 75% 0 mm 0 W/m2
21:10 18.6 °C 14.5 °C 1016.5 hPa West 3.2 km/h 6.4 km/h 77% 0 mm 0 W/m2
21:20 18.5 °C 14.4 °C 1016.5 hPa WNW 4.8 km/h 8 km/h 77% 0 mm 0 W/m2
21:30 18.4 °C 14.3 °C 1016.5 hPa West 3.2 km/h 6.4 km/h 77% 0 mm 0 W/m2
21:40 18.2 °C 14.3 °C 1016.5 hPa West 4.8 km/h 9.7 km/h 78% 0 mm 0 W/m2
21:50 18.1 °C 14.2 °C 1016.5 hPa WSW 4.8 km/h 14.5 km/h 78% 0 mm 0 W/m2
22:00 17.9 °C 14.2 °C 1016.8 hPa West 4.8 km/h 9.7 km/h 79% 0 mm 0 W/m2
22:10 17.8 °C 14.1 °C 1017.2 hPa West 4.8 km/h 11.3 km/h 79% 0 mm 0 W/m2
22:20 17.6 °C 13.9 °C 1017.2 hPa SW 4.8 km/h 9.7 km/h 79% 0 mm 0 W/m2
22:30 17.5 °C 14 °C 1017.2 hPa WSW 4.8 km/h 11.3 km/h 80% 0 mm 0 W/m2
22:40 17.3 °C 13.8 °C 1017.2 hPa SW 4.8 km/h 11.3 km/h 80% 0 mm 0 W/m2
22:50 17.2 °C 13.7 °C 1017.2 hPa WSW 4.8 km/h 9.7 km/h 80% 0 mm 0 W/m2
23:00 17 °C 13.7 °C 1017.2 hPa SW 3.2 km/h 8 km/h 81% 0 mm 0 W/m2
23:10 16.8 °C 13.5 °C 1017.5 hPa WSW 3.2 km/h 9.7 km/h 81% 0 mm 0 W/m2
23:20 16.7 °C 13.8 °C 1017.5 hPa WSW 4.8 km/h 8 km/h 83% 0 mm 0 W/m2
23:30 16.4 °C 13.5 °C 1017.5 hPa SW 3.2 km/h 9.7 km/h 83% 0 mm 0 W/m2
23:40 16.2 °C 13.5 °C 1017.5 hPa SW 4.8 km/h 9.7 km/h 84% 0 mm 0 W/m2
23:50 16.1 °C 13.4 °C 1017.5 hPa WSW 3.2 km/h 11.3 km/h 84% 0 mm 0 W/m2
Knjazevac, Serbia
Compliments of Weather Underground - 2 mb